createdAt,value
2019-02-06T00:01:36.029Z,66.77
2019-02-06T00:04:06.668Z,65.83
2019-02-06T00:07:02.558Z,73.30
2019-02-06T00:09:33.190Z,67.53
2019-02-06T00:12:04.062Z,67.07
2019-02-06T00:14:34.798Z,71.53
2019-02-06T00:17:06.270Z,65.33
2019-02-06T00:19:36.946Z,64.70
2019-02-06T00:22:11.376Z,66.87
2019-02-06T00:24:42.179Z,66.60
2019-02-06T00:27:12.789Z,71.93
2019-02-06T00:29:43.753Z,63.20
2019-02-06T00:32:14.577Z,66.67
2019-02-06T00:34:47.519Z,65.83
2019-02-06T00:37:18.062Z,71.57
2019-02-06T00:39:48.579Z,60.67
2019-02-06T00:42:19.398Z,67.33
2019-02-06T00:44:50.010Z,67.20
2019-02-06T00:47:20.678Z,64.90
2019-02-06T00:49:51.186Z,64.63
2019-02-06T00:52:22.156Z,63.70
2019-02-06T00:54:53.293Z,65.77
2019-02-06T00:57:24.004Z,68.97
2019-02-06T00:59:54.940Z,58.70
2019-02-06T01:02:25.978Z,55.80
2019-02-06T01:04:56.918Z,60.27
2019-02-06T01:07:27.622Z,62.40
2019-02-06T01:09:58.384Z,68.20
2019-02-06T01:12:29.172Z,61.50
2019-02-06T01:14:59.780Z,58.80
2019-02-06T01:17:30.351Z,67.50
2019-02-06T01:20:01.066Z,58.67
2019-02-06T01:22:31.719Z,53.53
2019-02-06T01:25:02.473Z,61.37
2019-02-06T01:27:33.104Z,62.57
2019-02-06T01:30:03.949Z,58.83
2019-02-06T01:32:34.469Z,59.10
2019-02-06T01:35:05.937Z,61.00
2019-02-06T01:37:37.450Z,60.63
2019-02-06T01:40:09.437Z,64.73
2019-02-06T01:42:40.021Z,59.73
2019-02-06T01:45:12.459Z,61.30
2019-02-06T01:47:43.075Z,60.90
2019-02-06T01:50:15.940Z,61.40
2019-02-06T01:52:46.561Z,60.60
2019-02-06T01:55:18.541Z,62.13
2019-02-06T01:57:49.204Z,66.33
2019-02-06T02:00:21.921Z,62.23
2019-02-06T02:02:52.956Z,66.47
2019-02-06T02:05:23.858Z,57.07
2019-02-06T02:07:54.438Z,62.60
2019-02-06T02:10:24.949Z,63.27
2019-02-06T02:13:02.291Z,61.23
2019-02-06T02:15:32.851Z,55.43
2019-02-06T02:18:03.401Z,67.63
2019-02-06T02:20:33.966Z,59.57
2019-02-06T02:23:04.507Z,58.43
2019-02-06T02:25:34.950Z,59.37
2019-02-06T02:28:05.719Z,57.17
2019-02-06T02:30:46.383Z,55.27
2019-02-06T02:33:16.910Z,56.63
2019-02-06T02:35:47.344Z,56.17
2019-02-06T02:38:18.288Z,60.33
2019-02-06T02:40:49.159Z,57.20
2019-02-06T02:43:19.845Z,53.70
2019-02-06T02:45:51.735Z,61.30
2019-02-06T02:48:22.852Z,61.97
2019-02-06T02:50:53.584Z,59.10
2019-02-06T02:53:24.146Z,65.57
2019-02-06T02:55:54.990Z,62.53
2019-02-06T02:58:25.717Z,64.87
2019-02-06T03:01:15.157Z,74.60
2019-02-06T03:03:51.318Z,69.13
2019-02-06T03:06:28.420Z,61.27
2019-02-06T03:08:54.193Z,61.27
2019-02-06T03:11:24.740Z,62.23
2019-02-06T03:13:55.324Z,57.30
2019-02-06T03:16:25.960Z,57.00
2019-02-06T03:18:56.487Z,54.47
2019-02-06T03:21:26.935Z,54.47
2019-02-06T03:23:57.649Z,50.67
2019-02-06T03:26:28.169Z,55.77
2019-02-06T03:28:58.705Z,56.53
2019-02-06T03:31:30.088Z,51.90
2019-02-06T03:34:00.703Z,50.57
2019-02-06T03:36:39.847Z,53.67
2019-02-06T03:39:04.142Z,52.47
2019-02-06T03:41:35.401Z,52.03
2019-02-06T03:44:06.514Z,57.93
2019-02-06T03:46:40.436Z,53.23
2019-02-06T03:49:10.912Z,56.10
2019-02-06T03:51:41.432Z,52.03
2019-02-06T03:54:11.935Z,52.87
2019-02-06T03:56:42.400Z,50.80
2019-02-06T03:59:13.120Z,49.93
2019-02-06T04:01:43.773Z,54.47
2019-02-06T04:04:14.350Z,51.47
2019-02-06T04:06:53.662Z,50.10
2019-02-06T04:09:18.434Z,50.47
2019-02-06T04:11:50.858Z,48.93
2019-02-06T04:14:21.492Z,49.80
2019-02-06T04:16:52.223Z,57.27
2019-02-06T04:19:22.848Z,51.43
2019-02-06T04:21:53.720Z,53.13
2019-02-06T04:24:24.902Z,53.53
2019-02-06T04:26:55.368Z,53.03
2019-02-06T04:29:26.329Z,52.80
2019-02-06T04:31:56.782Z,53.70
2019-02-06T04:34:27.479Z,56.97
2019-02-06T04:37:06.096Z,53.47
2019-02-06T04:39:30.080Z,53.03
2019-02-06T04:42:00.630Z,51.47
2019-02-06T04:44:31.201Z,52.10
2019-02-06T04:47:01.745Z,49.87
2019-02-06T04:49:32.410Z,52.33
2019-02-06T04:52:03.883Z,50.57
2019-02-06T04:54:36.323Z,49.80
2019-02-06T04:57:09.421Z,52.57
2019-02-06T04:59:39.345Z,56.13
2019-02-06T05:02:10.387Z,54.33
2019-02-06T05:04:41.619Z,53.53
2019-02-06T05:07:19.135Z,59.50
2019-02-06T05:09:44.554Z,54.23
2019-02-06T05:12:15.119Z,60.10
2019-02-06T05:14:45.615Z,62.97
2019-02-06T05:17:16.157Z,60.20
2019-02-06T05:19:46.896Z,60.90
2019-02-06T05:22:17.406Z,53.67
2019-02-06T05:24:48.210Z,61.00
2019-02-06T05:27:18.984Z,58.67
2019-02-06T05:29:49.937Z,55.87
2019-02-06T05:32:20.726Z,54.90
2019-02-06T05:34:51.395Z,51.70
2019-02-06T05:37:31.586Z,58.13
2019-02-06T05:39:54.739Z,53.60
2019-02-06T05:42:25.175Z,50.43
2019-02-06T05:44:55.828Z,53.73
2019-02-06T05:47:26.680Z,52.53
2019-02-06T05:49:57.170Z,54.63
2019-02-06T05:53:15.728Z,56.10
2019-02-06T05:55:47.790Z,50.83
2019-02-06T05:58:18.298Z,49.87
2019-02-06T06:00:49.895Z,56.40
2019-02-06T06:03:20.594Z,52.23
2019-02-06T06:05:51.602Z,47.03
2019-02-06T06:08:22.151Z,48.70
2019-02-06T06:10:52.733Z,51.50
2019-02-06T06:13:23.283Z,46.83
2019-02-06T06:15:53.884Z,46.57
2019-02-06T06:18:24.914Z,49.73
2019-02-06T06:20:55.856Z,48.33
2019-02-06T06:23:26.421Z,52.33
2019-02-06T06:25:57.198Z,54.80
2019-02-06T06:28:27.692Z,55.03
2019-02-06T06:30:58.647Z,52.33
2019-02-06T06:33:29.395Z,53.87
2019-02-06T06:36:00.005Z,48.10
2019-02-06T06:38:30.524Z,53.03
2019-02-06T06:41:01.301Z,49.07
2019-02-06T06:43:32.161Z,60.57
2019-02-06T06:46:03.235Z,60.50
2019-02-06T06:48:34.445Z,58.27
2019-02-06T06:51:04.920Z,56.73
2019-02-06T06:53:35.727Z,59.50
2019-02-06T06:56:06.360Z,61.50
2019-02-06T06:58:36.954Z,45.23
2019-02-06T07:01:10.699Z,49.47
2019-02-06T07:03:39.968Z,45.60
2019-02-06T07:06:28.683Z,51.07
2019-02-06T07:08:59.290Z,48.03
2019-02-06T07:11:32.942Z,49.10
2019-02-06T07:14:03.726Z,55.10
2019-02-06T07:16:34.460Z,54.60
2019-02-06T07:19:04.960Z,61.50
2019-02-06T07:21:35.550Z,53.33
2019-02-06T07:24:06.103Z,58.83
2019-02-06T07:26:36.900Z,49.10
2019-02-06T07:29:07.808Z,45.53
2019-02-06T07:31:38.322Z,48.50
2019-02-06T07:34:09.091Z,48.47
2019-02-06T07:36:39.618Z,47.57
2019-02-06T07:39:10.864Z,46.33
2019-02-06T07:41:41.617Z,43.30
2019-02-06T07:44:13.424Z,43.77
2019-02-06T07:46:44.159Z,40.30
2019-02-06T07:49:14.755Z,44.03
2019-02-06T07:51:45.758Z,46.53
2019-02-06T07:54:16.330Z,42.63
2019-02-06T07:56:47.031Z,44.40
2019-02-06T07:59:17.560Z,45.53
2019-02-06T08:01:48.673Z,45.57
2019-02-06T08:04:19.306Z,47.20
2019-02-06T08:06:50.212Z,52.30
2019-02-06T08:09:21.176Z,45.50
2019-02-06T08:11:51.810Z,49.17
2019-02-06T08:14:22.307Z,47.60
2019-02-06T08:16:53.381Z,54.07
2019-02-06T08:19:31.586Z,50.20
2019-02-06T08:22:02.261Z,47.17
2019-02-06T08:24:32.850Z,50.77
2019-02-06T08:27:03.435Z,47.33
2019-02-06T08:29:34.158Z,51.57
2019-02-06T08:32:05.116Z,50.33
2019-02-06T08:34:35.658Z,47.53
2019-02-06T08:37:06.170Z,49.20
2019-02-06T08:39:36.892Z,48.73
2019-02-06T08:42:07.504Z,51.83
2019-02-06T08:44:38.510Z,48.03
2019-02-06T08:47:09.204Z,46.90
2019-02-06T08:49:39.968Z,41.87
2019-02-06T08:52:10.894Z,46.30
2019-02-06T08:54:41.782Z,48.27
2019-02-06T08:57:12.393Z,42.27
2019-02-06T08:59:43.402Z,41.53
2019-02-06T09:02:14.476Z,47.27
2019-02-06T09:04:55.422Z,42.97
2019-02-06T09:07:18.354Z,44.37
2019-02-06T09:09:48.963Z,46.53
2019-02-06T09:12:19.452Z,48.50
2019-02-06T09:14:50.330Z,45.97
2019-02-06T09:17:20.787Z,44.97
2019-02-06T09:19:51.477Z,43.07
2019-02-06T09:22:21.951Z,44.47
2019-02-06T09:24:52.495Z,45.53
2019-02-06T09:27:25.267Z,43.67
2019-02-06T09:29:55.887Z,41.20
2019-02-06T09:32:26.721Z,41.67
2019-02-06T09:34:57.328Z,39.97
2019-02-06T09:37:28.084Z,39.07
2019-02-06T09:39:58.691Z,33.70
2019-02-06T09:42:29.345Z,38.30
2019-02-06T09:45:04.960Z,40.27
2019-02-06T09:47:35.734Z,35.17
2019-02-06T09:50:08.905Z,35.03
2019-02-06T09:52:39.473Z,36.20
2019-02-06T09:55:10.315Z,34.80
2019-02-06T09:57:41.012Z,40.80
2019-02-06T10:00:15.841Z,44.33
2019-02-06T10:02:46.621Z,40.87
2019-02-06T10:05:17.559Z,41.27
2019-02-06T10:07:48.101Z,37.30
2019-02-06T10:10:20.434Z,35.53
2019-02-06T10:12:50.990Z,38.80
2019-02-06T10:15:23.757Z,38.93
2019-02-06T10:17:55.017Z,38.20
2019-02-06T10:20:28.385Z,38.47
2019-02-06T10:22:59.844Z,37.23
2019-02-06T10:25:30.758Z,39.50
2019-02-06T10:28:01.321Z,40.57
2019-02-06T10:30:53.921Z,35.10
2019-02-06T10:33:24.548Z,39.00
2019-02-06T10:35:55.168Z,41.40
2019-02-06T10:38:25.711Z,39.40
2019-02-06T10:40:56.484Z,42.77
2019-02-06T10:43:32.096Z,38.30
2019-02-06T10:45:59.492Z,39.87
2019-02-06T10:48:30.062Z,43.20
2019-02-06T10:51:00.777Z,43.93
2019-02-06T10:53:31.449Z,37.50
2019-02-06T10:56:05.350Z,39.37
2019-02-06T10:58:36.900Z,39.07
2019-02-06T11:01:07.766Z,39.30
2019-02-06T11:03:38.497Z,39.43
2019-02-06T11:06:09.204Z,38.53
2019-02-06T11:08:40.572Z,35.87
2019-02-06T11:11:12.262Z,30.00
2019-02-06T11:13:42.801Z,24.73
2019-02-06T11:16:13.407Z,24.27
2019-02-06T11:18:44.619Z,28.60
2019-02-06T11:21:15.375Z,27.73
2019-02-06T11:23:46.008Z,23.13
2019-02-06T11:26:16.681Z,27.90
2019-02-06T11:28:47.227Z,25.27
2019-02-06T11:31:17.943Z,25.63
2019-02-06T11:33:48.499Z,27.73
2019-02-06T11:36:24.189Z,23.47
2019-02-06T11:38:51.681Z,22.87
2019-02-06T11:41:22.329Z,23.93
2019-02-06T11:43:52.991Z,24.53
2019-02-06T11:46:23.549Z,22.70
2019-02-06T11:48:54.515Z,23.83
2019-02-06T11:51:25.385Z,26.07
2019-02-06T11:53:55.942Z,27.77
2019-02-06T11:56:27.576Z,27.87
2019-02-06T11:58:58.205Z,24.27
2019-02-06T12:01:32.341Z,30.77
2019-02-06T12:04:02.907Z,27.53
2019-02-06T12:06:33.504Z,26.47
2019-02-06T12:09:06.549Z,21.60
2019-02-06T12:11:37.954Z,22.00
2019-02-06T12:14:08.853Z,24.70
2019-02-06T12:16:39.498Z,32.87
2019-02-06T12:19:10.095Z,27.63
2019-02-06T12:21:40.674Z,21.30
2019-02-06T12:24:11.306Z,18.73
2019-02-06T12:26:41.869Z,30.40
2019-02-06T12:29:12.924Z,47.33
2019-02-06T12:31:43.396Z,27.27
2019-02-06T12:34:14.118Z,28.80
2019-02-06T12:36:44.738Z,28.80
2019-02-06T12:39:15.286Z,31.63
2019-02-06T12:41:45.912Z,23.87
2019-02-06T12:44:16.413Z,27.87
2019-02-06T12:46:47.344Z,26.60
2019-02-06T12:49:18.032Z,33.57
2019-02-06T12:51:48.673Z,40.43
2019-02-06T12:54:19.163Z,29.43
2019-02-06T12:56:49.663Z,34.37
2019-02-06T12:59:20.211Z,29.33
2019-02-06T13:01:50.763Z,25.93
2019-02-06T13:04:21.323Z,25.37
2019-02-06T13:06:51.829Z,26.93
2019-02-06T13:09:22.449Z,26.40
2019-02-06T13:11:53.199Z,35.03
2019-02-06T13:14:24.241Z,29.80
2019-02-06T13:16:54.771Z,27.17
2019-02-06T13:19:25.388Z,25.97
2019-02-06T13:21:55.981Z,27.27
2019-02-06T13:24:26.505Z,23.53
2019-02-06T13:26:58.405Z,23.27
2019-02-06T13:29:29.007Z,22.43
2019-02-06T13:31:59.553Z,26.47
2019-02-06T13:34:30.097Z,22.07
2019-02-06T13:37:00.995Z,29.00
2019-02-06T13:39:31.558Z,31.90
2019-02-06T13:42:05.337Z,36.80
2019-02-06T13:44:34.604Z,34.77
2019-02-06T13:47:05.682Z,35.73
2019-02-06T13:49:36.298Z,42.67
2019-02-06T13:52:06.952Z,47.33
2019-02-06T13:54:38.840Z,45.43
2019-02-06T13:57:09.358Z,45.37
2019-02-06T13:59:40.960Z,38.10
2019-02-06T14:02:11.820Z,36.53
2019-02-06T14:04:42.788Z,41.07
2019-02-06T14:07:13.534Z,36.00
2019-02-06T14:09:44.187Z,36.30
2019-02-06T14:12:14.764Z,38.00
2019-02-06T14:14:45.537Z,36.07
2019-02-06T14:17:18.194Z,38.90
2019-02-06T14:19:48.323Z,35.23
2019-02-06T14:22:19.307Z,37.37
2019-02-06T14:24:57.307Z,33.37
2019-02-06T14:28:21.113Z,34.93
2019-02-06T14:31:40.802Z,34.10
2019-02-06T14:34:48.370Z,33.90
2019-02-06T14:37:54.330Z,36.57
2019-02-06T14:41:08.535Z,36.40
2019-02-06T14:44:03.542Z,38.43
2019-02-06T14:47:11.641Z,34.67
2019-02-06T14:50:08.084Z,35.70
2019-02-06T14:53:37.957Z,38.80
2019-02-06T14:56:49.820Z,39.30
2019-02-06T14:59:49.559Z,41.47
2019-02-06T15:03:01.612Z,36.43
2019-02-06T15:06:11.503Z,42.07
2019-02-06T15:09:24.884Z,37.57
2019-02-06T15:12:22.628Z,35.27
2019-02-06T15:15:23.170Z,33.03
2019-02-06T15:18:31.500Z,39.03
2019-02-06T15:21:27.108Z,36.47
2019-02-06T15:24:46.356Z,38.00
2019-02-06T15:28:05.039Z,36.37
2019-02-06T15:30:56.224Z,28.07
2019-02-06T15:33:54.684Z,36.20
2019-02-06T15:37:06.418Z,29.53
2019-02-06T15:40:04.456Z,29.03
2019-02-06T15:43:05.268Z,28.70
2019-02-06T15:46:10.907Z,29.27
2019-02-06T15:49:16.907Z,24.70
2019-02-06T15:52:28.594Z,29.53
2019-02-06T15:55:42.184Z,27.83
2019-02-06T15:58:34.656Z,23.03
2019-02-06T16:01:23.061Z,19.77
2019-02-06T16:04:42.743Z,24.13
2019-02-06T16:07:49.360Z,24.23
2019-02-06T16:11:06.270Z,25.07
2019-02-06T16:14:27.343Z,27.83
2019-02-06T16:17:37.691Z,37.87
2019-02-06T16:21:05.585Z,44.37
2019-02-06T16:24:17.697Z,48.87
2019-02-06T16:27:37.686Z,68.20
2019-02-06T16:30:47.864Z,80.50
2019-02-06T16:34:10.027Z,79.50
2019-02-06T16:37:24.035Z,77.10
2019-02-06T16:40:41.920Z,72.50
2019-02-06T16:43:41.858Z,56.93
2019-02-06T16:46:32.506Z,43.17
2019-02-06T16:49:13.828Z,44.33
2019-02-06T16:52:15.513Z,41.53
2019-02-06T16:55:24.398Z,37.70
2019-02-06T16:59:05.757Z,41.30
2019-02-06T17:02:07.462Z,59.00
2019-02-06T17:05:17.602Z,57.43
2019-02-06T17:08:43.310Z,56.30
2019-02-06T17:12:05.337Z,47.33
2019-02-06T17:15:11.396Z,39.77
2019-02-06T17:18:16.934Z,45.37
2019-02-06T17:21:25.910Z,42.70
2019-02-06T17:24:46.175Z,44.93
2019-02-06T17:27:41.620Z,48.90
2019-02-06T17:30:42.507Z,45.23
2019-02-06T17:34:15.524Z,44.43
2019-02-06T17:37:12.399Z,37.43
2019-02-06T17:44:09.541Z,37.83
2019-02-06T17:47:19.664Z,35.57
2019-02-06T17:54:09.393Z,37.03
2019-02-06T17:56:40.233Z,37.37
2019-02-06T17:59:11.543Z,37.83
2019-02-06T18:01:49.107Z,40.83
2019-02-06T18:04:27.954Z,43.05
2019-02-06T18:06:58.802Z,37.03
2019-02-06T18:09:29.598Z,42.13
2019-02-06T18:12:00.230Z,39.13
2019-02-06T18:14:30.833Z,40.87
2019-02-06T18:17:03.400Z,39.33
2019-02-06T18:19:39.438Z,39.53
2019-02-06T18:22:10.504Z,39.13
2019-02-06T18:24:42.708Z,39.70
2019-02-06T18:27:13.610Z,41.80
2019-02-06T18:29:44.302Z,38.97
2019-02-06T18:32:15.076Z,38.30
2019-02-06T18:34:46.328Z,40.27
2019-02-06T18:37:17.012Z,40.70
2019-02-06T18:39:48.462Z,37.67
2019-02-06T18:42:19.110Z,37.57
2019-02-06T18:44:49.903Z,41.60
2019-02-06T18:47:22.454Z,35.10
2019-02-06T18:49:53.597Z,36.87
2019-02-06T18:52:24.526Z,34.67
2019-02-06T18:54:55.304Z,47.53
2019-02-06T18:57:26.141Z,40.63
2019-02-06T18:59:58.663Z,56.80
2019-02-06T19:02:29.968Z,55.93
2019-02-06T19:05:00.973Z,60.13
2019-02-06T19:07:31.828Z,47.03
2019-02-06T19:10:02.759Z,51.13
2019-02-06T19:12:34.042Z,57.97
2019-02-06T19:15:06.364Z,36.10
2019-02-06T19:17:37.137Z,36.97
2019-02-06T19:20:10.254Z,35.67
2019-02-06T19:22:41.999Z,39.20
2019-02-06T19:25:13.081Z,46.13
2019-02-06T19:27:45.509Z,40.40
2019-02-06T19:30:25.405Z,41.63
2019-02-06T19:33:02.125Z,39.10
2019-02-06T19:35:30.012Z,46.87
2019-02-06T19:38:01.081Z,45.00
2019-02-06T19:40:31.816Z,42.17
2019-02-06T19:43:02.960Z,46.03
2019-02-06T19:45:33.714Z,43.70
2019-02-06T19:48:21.667Z,47.77
2019-02-06T19:50:40.609Z,39.57
2019-02-06T19:53:12.572Z,44.37
2019-02-06T19:55:43.182Z,43.33
2019-02-06T19:58:19.606Z,40.33
2019-02-06T20:00:50.579Z,42.50
2019-02-06T20:03:21.260Z,44.20
2019-02-06T20:05:53.716Z,42.47
2019-02-06T20:08:24.300Z,39.40
2019-02-06T20:10:55.469Z,39.43
2019-02-06T20:13:26.259Z,40.70
2019-02-06T20:15:57.194Z,42.97
2019-02-06T20:18:29.303Z,42.00
2019-02-06T20:20:59.952Z,38.73
2019-02-06T20:23:30.592Z,48.30
2019-02-06T20:26:02.465Z,42.00
2019-02-06T20:28:34.509Z,44.43
2019-02-06T20:31:05.366Z,42.77
2019-02-06T20:33:37.197Z,47.93
2019-02-06T20:36:08.915Z,61.77
2019-02-06T20:38:39.527Z,50.70
2019-02-06T20:41:10.480Z,50.47
2019-02-06T20:43:41.671Z,49.77
2019-02-06T20:46:13.838Z,45.70
2019-02-06T20:48:44.653Z,44.40
2019-02-06T20:51:15.356Z,46.97
2019-02-06T20:53:46.264Z,46.90
2019-02-06T20:56:17.087Z,52.13
2019-02-06T20:58:48.201Z,44.93
2019-02-06T21:01:19.601Z,46.70
2019-02-06T21:03:50.347Z,52.37
2019-02-06T21:06:21.249Z,49.30
2019-02-06T21:08:52.240Z,44.60
2019-02-06T21:11:23.352Z,43.83
2019-02-06T21:14:02.445Z,44.27
2019-02-06T21:16:35.246Z,48.17
2019-02-06T21:19:06.306Z,44.17
2019-02-06T21:21:36.937Z,44.70
2019-02-06T21:24:08.184Z,48.83
2019-02-06T21:26:38.996Z,46.47
2019-02-06T21:29:09.771Z,51.93
2019-02-06T21:31:40.771Z,55.27
2019-02-06T21:34:12.192Z,49.53
2019-02-06T21:36:43.290Z,45.20
2019-02-06T21:39:14.346Z,50.60
2019-02-06T21:41:44.960Z,47.67
2019-02-06T21:44:15.500Z,43.57
2019-02-06T21:46:46.576Z,50.20
2019-02-06T21:49:17.648Z,47.57
2019-02-06T21:51:48.779Z,48.50
2019-02-06T21:54:19.470Z,47.73
2019-02-06T21:56:50.134Z,44.47
2019-02-06T21:59:20.904Z,54.37
2019-02-06T22:01:52.246Z,53.17
2019-02-06T22:04:23.390Z,45.53
2019-02-06T22:06:54.046Z,49.57
2019-02-06T22:09:25.406Z,45.90
2019-02-06T22:11:56.412Z,56.17
2019-02-06T22:14:27.377Z,44.70
2019-02-06T22:17:00.438Z,48.13
2019-02-06T22:19:32.369Z,52.90
2019-02-06T22:22:04.509Z,44.30
2019-02-06T22:24:35.473Z,52.03
2019-02-06T22:27:06.245Z,54.93
2019-02-06T22:29:40.029Z,56.20
2019-02-06T22:32:12.889Z,53.37
2019-02-06T22:34:44.418Z,48.03
2019-02-06T22:37:14.911Z,50.30
2019-02-06T22:39:45.889Z,46.63
2019-02-06T22:42:16.778Z,50.00
2019-02-06T22:44:47.565Z,47.23
2019-02-06T22:47:18.239Z,46.97
2019-02-06T22:49:48.907Z,47.70
2019-02-06T22:52:19.505Z,43.37
2019-02-06T22:54:50.183Z,49.30
2019-02-06T22:57:20.770Z,46.33
2019-02-06T22:59:51.482Z,47.63
2019-02-06T23:02:21.976Z,47.43
2019-02-06T23:04:52.770Z,42.30
2019-02-06T23:07:23.466Z,44.53
2019-02-06T23:09:54.467Z,44.20
2019-02-06T23:12:27.355Z,44.17
2019-02-06T23:14:58.497Z,43.20
2019-02-06T23:17:29.186Z,48.73
2019-02-06T23:20:00.182Z,44.37
2019-02-06T23:22:31.070Z,47.27
2019-02-06T23:25:01.851Z,50.23
2019-02-06T23:27:33.590Z,40.17
2019-02-06T23:30:04.958Z,48.03
2019-02-06T23:32:37.636Z,57.30
2019-02-06T23:35:08.898Z,57.97
2019-02-06T23:37:39.565Z,53.50
2019-02-06T23:40:11.220Z,52.67
2019-02-06T23:42:42.266Z,54.00
2019-02-06T23:45:13.176Z,61.90
2019-02-06T23:47:44.116Z,56.90
2019-02-06T23:50:14.924Z,59.57
2019-02-06T23:52:45.637Z,56.17
2019-02-06T23:55:17.349Z,60.10
2019-02-06T23:57:48.109Z,61.40
